sensor_id;sensor_type;location;lat;lon;timestamp;temperature;humidity
28959;DHT22;16066;0.000;0.000;2023-04-06T00:00:59;19.10;33.90
28959;DHT22;16066;0.000;0.000;2023-04-06T00:03:24;19.10;33.80
28959;DHT22;16066;0.000;0.000;2023-04-06T00:05:50;19.10;33.90
28959;DHT22;16066;0.000;0.000;2023-04-06T00:08:16;19.10;34.00
28959;DHT22;16066;0.000;0.000;2023-04-06T00:10:41;19.10;34.00
28959;DHT22;16066;0.000;0.000;2023-04-06T00:13:07;19.10;34.00
28959;DHT22;16066;0.000;0.000;2023-04-06T00:15:33;19.10;34.00
28959;DHT22;16066;0.000;0.000;2023-04-06T00:17:59;19.10;34.10
28959;DHT22;16066;0.000;0.000;2023-04-06T00:20:25;19.10;34.10
28959;DHT22;16066;0.000;0.000;2023-04-06T00:22:50;19.00;34.10
28959;DHT22;16066;0.000;0.000;2023-04-06T00:25:16;19.00;34.10
28959;DHT22;16066;0.000;0.000;2023-04-06T00:27:41;19.00;34.10
28959;DHT22;16066;0.000;0.000;2023-04-06T00:30:08;19.00;34.10
28959;DHT22;16066;0.000;0.000;2023-04-06T00:32:37;19.00;34.20
28959;DHT22;16066;0.000;0.000;2023-04-06T00:35:05;19.00;34.20
28959;DHT22;16066;0.000;0.000;2023-04-06T00:37:32;19.00;34.20
28959;DHT22;16066;0.000;0.000;2023-04-06T00:39:57;19.00;34.20
28959;DHT22;16066;0.000;0.000;2023-04-06T00:42:23;19.00;34.20
28959;DHT22;16066;0.000;0.000;2023-04-06T00:44:57;19.00;34.30
28959;DHT22;16066;0.000;0.000;2023-04-06T00:47:23;19.00;34.30
28959;DHT22;16066;0.000;0.000;2023-04-06T00:49:51;19.00;34.30
28959;DHT22;16066;0.000;0.000;2023-04-06T00:52:17;18.90;34.30
28959;DHT22;16066;0.000;0.000;2023-04-06T00:54:42;19.00;34.30
28959;DHT22;16066;0.000;0.000;2023-04-06T00:57:08;18.90;34.30
28959;DHT22;16066;0.000;0.000;2023-04-06T00:59:34;19.00;34.40
28959;DHT22;16066;0.000;0.000;2023-04-06T01:02:00;18.90;34.30
28959;DHT22;16066;0.000;0.000;2023-04-06T01:04:26;18.90;34.40
28959;DHT22;16066;0.000;0.000;2023-04-06T01:06:52;18.90;34.40
28959;DHT22;16066;0.000;0.000;2023-04-06T01:09:17;18.90;34.40
28959;DHT22;16066;0.000;0.000;2023-04-06T01:11:43;18.90;34.40
28959;DHT22;16066;0.000;0.000;2023-04-06T01:14:09;18.90;34.40
28959;DHT22;16066;0.000;0.000;2023-04-06T01:16:34;18.90;34.40
28959;DHT22;16066;0.000;0.000;2023-04-06T01:19:00;18.90;34.50
28959;DHT22;16066;0.000;0.000;2023-04-06T01:21:26;18.90;34.50
28959;DHT22;16066;0.000;0.000;2023-04-06T01:23:52;18.90;34.50
28959;DHT22;16066;0.000;0.000;2023-04-06T01:26:17;18.90;34.50
28959;DHT22;16066;0.000;0.000;2023-04-06T01:28:43;18.90;34.50
28959;DHT22;16066;0.000;0.000;2023-04-06T01:31:09;18.90;34.40
28959;DHT22;16066;0.000;0.000;2023-04-06T01:33:35;18.90;34.60
28959;DHT22;16066;0.000;0.000;2023-04-06T01:36:01;18.90;34.60
28959;DHT22;16066;0.000;0.000;2023-04-06T01:38:27;18.90;34.60
28959;DHT22;16066;0.000;0.000;2023-04-06T01:40:53;18.80;34.60
28959;DHT22;16066;0.000;0.000;2023-04-06T01:43:19;18.90;34.70
28959;DHT22;16066;0.000;0.000;2023-04-06T01:45:44;18.90;34.60
28959;DHT22;16066;0.000;0.000;2023-04-06T01:48:10;18.80;34.60
28959;DHT22;16066;0.000;0.000;2023-04-06T01:50:35;18.80;34.70
28959;DHT22;16066;0.000;0.000;2023-04-06T01:53:01;18.80;34.70
28959;DHT22;16066;0.000;0.000;2023-04-06T01:55:27;18.80;34.70
28959;DHT22;16066;0.000;0.000;2023-04-06T01:57:52;18.80;34.70
28959;DHT22;16066;0.000;0.000;2023-04-06T02:00:18;18.80;34.80
28959;DHT22;16066;0.000;0.000;2023-04-06T02:02:43;18.80;34.80
28959;DHT22;16066;0.000;0.000;2023-04-06T02:05:09;18.80;34.90
28959;DHT22;16066;0.000;0.000;2023-04-06T02:07:35;18.80;34.90
28959;DHT22;16066;0.000;0.000;2023-04-06T02:10:00;18.80;35.00
28959;DHT22;16066;0.000;0.000;2023-04-06T02:12:26;18.80;35.00
28959;DHT22;16066;0.000;0.000;2023-04-06T02:14:51;18.80;35.00
28959;DHT22;16066;0.000;0.000;2023-04-06T02:17:17;18.80;35.00
28959;DHT22;16066;0.000;0.000;2023-04-06T02:19:42;18.80;35.00
28959;DHT22;16066;0.000;0.000;2023-04-06T02:22:09;18.80;35.10
28959;DHT22;16066;0.000;0.000;2023-04-06T02:24:34;18.80;35.10
28959;DHT22;16066;0.000;0.000;2023-04-06T02:27:00;18.80;35.10
28959;DHT22;16066;0.000;0.000;2023-04-06T02:29:26;18.80;35.10
28959;DHT22;16066;0.000;0.000;2023-04-06T02:31:52;18.80;35.10
28959;DHT22;16066;0.000;0.000;2023-04-06T02:34:17;18.80;35.10
28959;DHT22;16066;0.000;0.000;2023-04-06T02:36:46;18.70;35.00
28959;DHT22;16066;0.000;0.000;2023-04-06T02:39:12;18.80;35.10
28959;DHT22;16066;0.000;0.000;2023-04-06T02:41:38;18.70;35.10
28959;DHT22;16066;0.000;0.000;2023-04-06T02:44:05;18.70;35.10
28959;DHT22;16066;0.000;0.000;2023-04-06T02:46:31;18.70;35.10
28959;DHT22;16066;0.000;0.000;2023-04-06T02:48:56;18.70;35.10
28959;DHT22;16066;0.000;0.000;2023-04-06T02:51:22;18.70;35.20
28959;DHT22;16066;0.000;0.000;2023-04-06T02:53:47;18.70;35.20
28959;DHT22;16066;0.000;0.000;2023-04-06T02:56:13;18.70;35.20
28959;DHT22;16066;0.000;0.000;2023-04-06T02:58:39;18.70;35.20
28959;DHT22;16066;0.000;0.000;2023-04-06T03:01:04;18.70;35.20
28959;DHT22;16066;0.000;0.000;2023-04-06T03:03:30;18.70;35.20
28959;DHT22;16066;0.000;0.000;2023-04-06T03:05:55;18.70;35.20
28959;DHT22;16066;0.000;0.000;2023-04-06T03:08:24;18.70;35.30
28959;DHT22;16066;0.000;0.000;2023-04-06T03:10:49;18.70;35.30
28959;DHT22;16066;0.000;0.000;2023-04-06T03:13:15;18.70;35.90
28959;DHT22;16066;0.000;0.000;2023-04-06T03:15:41;18.70;35.30
28959;DHT22;16066;0.000;0.000;2023-04-06T03:18:06;18.70;35.30
28959;DHT22;16066;0.000;0.000;2023-04-06T03:20:31;18.70;35.30
28959;DHT22;16066;0.000;0.000;2023-04-06T03:22:57;18.70;35.40
28959;DHT22;16066;0.000;0.000;2023-04-06T03:25:23;18.70;35.30
28959;DHT22;16066;0.000;0.000;2023-04-06T03:27:48;18.70;35.40
28959;DHT22;16066;0.000;0.000;2023-04-06T03:30:14;18.70;35.40
28959;DHT22;16066;0.000;0.000;2023-04-06T03:32:43;18.70;35.40
28959;DHT22;16066;0.000;0.000;2023-04-06T03:35:09;18.70;35.40
28959;DHT22;16066;0.000;0.000;2023-04-06T03:37:34;18.60;35.40
28959;DHT22;16066;0.000;0.000;2023-04-06T03:40:00;18.60;35.40
28959;DHT22;16066;0.000;0.000;2023-04-06T03:42:26;18.60;35.40
28959;DHT22;16066;0.000;0.000;2023-04-06T03:44:52;18.60;35.40
28959;DHT22;16066;0.000;0.000;2023-04-06T03:47:17;18.70;35.50
28959;DHT22;16066;0.000;0.000;2023-04-06T03:49:43;18.60;35.40
28959;DHT22;16066;0.000;0.000;2023-04-06T03:52:08;18.60;35.50
28959;DHT22;16066;0.000;0.000;2023-04-06T03:54:34;18.60;35.50
28959;DHT22;16066;0.000;0.000;2023-04-06T03:56:59;18.60;35.60
28959;DHT22;16066;0.000;0.000;2023-04-06T03:59:25;18.60;35.50
28959;DHT22;16066;0.000;0.000;2023-04-06T04:01:51;18.60;35.50
28959;DHT22;16066;0.000;0.000;2023-04-06T04:04:16;18.60;35.60
28959;DHT22;16066;0.000;0.000;2023-04-06T04:06:42;18.60;35.50
28959;DHT22;16066;0.000;0.000;2023-04-06T04:09:07;18.60;35.60
28959;DHT22;16066;0.000;0.000;2023-04-06T04:11:33;18.60;35.40
28959;DHT22;16066;0.000;0.000;2023-04-06T04:13:58;18.60;35.50
28959;DHT22;16066;0.000;0.000;2023-04-06T04:16:24;18.60;35.60
28959;DHT22;16066;0.000;0.000;2023-04-06T04:18:50;18.60;35.60
28959;DHT22;16066;0.000;0.000;2023-04-06T04:21:15;18.60;35.60
28959;DHT22;16066;0.000;0.000;2023-04-06T04:23:41;18.60;35.60
28959;DHT22;16066;0.000;0.000;2023-04-06T04:26:06;18.60;35.60
28959;DHT22;16066;0.000;0.000;2023-04-06T04:28:32;18.60;35.70
28959;DHT22;16066;0.000;0.000;2023-04-06T04:30:57;18.60;35.70
28959;DHT22;16066;0.000;0.000;2023-04-06T04:33:23;18.50;35.60
28959;DHT22;16066;0.000;0.000;2023-04-06T04:35:48;18.50;35.60
28959;DHT22;16066;0.000;0.000;2023-04-06T04:38:14;18.50;35.60
28959;DHT22;16066;0.000;0.000;2023-04-06T04:40:40;18.50;35.60
28959;DHT22;16066;0.000;0.000;2023-04-06T04:43:05;18.50;35.60
28959;DHT22;16066;0.000;0.000;2023-04-06T04:45:31;18.50;35.60
28959;DHT22;16066;0.000;0.000;2023-04-06T04:47:56;18.50;35.60
28959;DHT22;16066;0.000;0.000;2023-04-06T04:50:22;18.50;35.60
28959;DHT22;16066;0.000;0.000;2023-04-06T04:52:47;18.50;36.30
28959;DHT22;16066;0.000;0.000;2023-04-06T04:55:13;18.50;35.70
28959;DHT22;16066;0.000;0.000;2023-04-06T04:57:38;18.50;35.70
28959;DHT22;16066;0.000;0.000;2023-04-06T05:00:05;18.50;35.70
28959;DHT22;16066;0.000;0.000;2023-04-06T05:02:31;18.50;35.80
28959;DHT22;16066;0.000;0.000;2023-04-06T05:04:56;18.50;35.90
28959;DHT22;16066;0.000;0.000;2023-04-06T05:07:21;18.50;36.40
28959;DHT22;16066;0.000;0.000;2023-04-06T05:09:47;18.50;35.80
28959;DHT22;16066;0.000;0.000;2023-04-06T05:12:13;18.50;35.90
28959;DHT22;16066;0.000;0.000;2023-04-06T05:14:39;18.50;35.90
28959;DHT22;16066;0.000;0.000;2023-04-06T05:17:05;18.50;35.90
28959;DHT22;16066;0.000;0.000;2023-04-06T05:19:30;18.50;36.00
28959;DHT22;16066;0.000;0.000;2023-04-06T05:21:56;18.50;35.90
28959;DHT22;16066;0.000;0.000;2023-04-06T05:24:21;18.50;36.00
28959;DHT22;16066;0.000;0.000;2023-04-06T05:26:47;18.50;36.00
28959;DHT22;16066;0.000;0.000;2023-04-06T05:29:13;18.50;36.00
28959;DHT22;16066;0.000;0.000;2023-04-06T05:31:39;18.50;36.10
28959;DHT22;16066;0.000;0.000;2023-04-06T05:34:04;18.50;36.20
28959;DHT22;16066;0.000;0.000;2023-04-06T05:36:30;18.50;36.10
28959;DHT22;16066;0.000;0.000;2023-04-06T05:38:57;18.50;36.30
28959;DHT22;16066;0.000;0.000;2023-04-06T05:41:23;18.50;36.40
28959;DHT22;16066;0.000;0.000;2023-04-06T05:43:49;18.60;36.40
28959;DHT22;16066;0.000;0.000;2023-04-06T05:46:15;18.60;36.40
28959;DHT22;16066;0.000;0.000;2023-04-06T05:48:40;18.70;36.50
28959;DHT22;16066;0.000;0.000;2023-04-06T05:51:06;18.70;36.40
28959;DHT22;16066;0.000;0.000;2023-04-06T05:53:32;18.70;36.30
28959;DHT22;16066;0.000;0.000;2023-04-06T05:56:01;18.80;36.30
28959;DHT22;16066;0.000;0.000;2023-04-06T05:58:27;18.90;36.50
28959;DHT22;16066;0.000;0.000;2023-04-06T06:00:59;19.00;36.60
28959;DHT22;16066;0.000;0.000;2023-04-06T06:03:25;19.10;36.80
28959;DHT22;16066;0.000;0.000;2023-04-06T06:05:51;19.20;36.80
28959;DHT22;16066;0.000;0.000;2023-04-06T06:08:16;19.30;36.90
28959;DHT22;16066;0.000;0.000;2023-04-06T06:10:42;19.40;36.80
28959;DHT22;16066;0.000;0.000;2023-04-06T06:13:08;19.50;36.80
28959;DHT22;16066;0.000;0.000;2023-04-06T06:15:34;19.50;36.70
28959;DHT22;16066;0.000;0.000;2023-04-06T06:17:59;19.60;36.70
28959;DHT22;16066;0.000;0.000;2023-04-06T06:20:25;19.70;36.80
28959;DHT22;16066;0.000;0.000;2023-04-06T06:22:51;19.70;36.80
28959;DHT22;16066;0.000;0.000;2023-04-06T06:25:17;19.80;36.80
28959;DHT22;16066;0.000;0.000;2023-04-06T06:27:42;19.90;36.90
28959;DHT22;16066;0.000;0.000;2023-04-06T06:30:08;19.90;36.70
28959;DHT22;16066;0.000;0.000;2023-04-06T06:32:34;19.90;36.50
28959;DHT22;16066;0.000;0.000;2023-04-06T06:34:59;20.00;36.40
28959;DHT22;16066;0.000;0.000;2023-04-06T06:37:25;20.00;37.00
28959;DHT22;16066;0.000;0.000;2023-04-06T06:39:50;20.10;36.60
28959;DHT22;16066;0.000;0.000;2023-04-06T06:42:16;20.10;36.50
28959;DHT22;16066;0.000;0.000;2023-04-06T06:44:42;20.10;36.60
28959;DHT22;16066;0.000;0.000;2023-04-06T06:47:07;20.20;36.70
28959;DHT22;16066;0.000;0.000;2023-04-06T06:49:33;20.20;36.60
28959;DHT22;16066;0.000;0.000;2023-04-06T06:51:58;20.30;36.80
28959;DHT22;16066;0.000;0.000;2023-04-06T06:54:24;20.30;36.70
28959;DHT22;16066;0.000;0.000;2023-04-06T06:56:49;20.40;36.60
28959;DHT22;16066;0.000;0.000;2023-04-06T06:59:15;20.40;36.50
28959;DHT22;16066;0.000;0.000;2023-04-06T07:01:41;20.40;36.70
28959;DHT22;16066;0.000;0.000;2023-04-06T07:04:07;20.50;36.60
28959;DHT22;16066;0.000;0.000;2023-04-06T07:06:35;20.50;36.40
28959;DHT22;16066;0.000;0.000;2023-04-06T07:09:01;20.50;36.30
28959;DHT22;16066;0.000;0.000;2023-04-06T07:11:28;20.50;36.40
28959;DHT22;16066;0.000;0.000;2023-04-06T07:13:54;20.60;36.40
28959;DHT22;16066;0.000;0.000;2023-04-06T07:16:19;20.60;36.20
28959;DHT22;16066;0.000;0.000;2023-04-06T07:18:45;20.60;36.30
28959;DHT22;16066;0.000;0.000;2023-04-06T07:21:11;20.60;36.30
28959;DHT22;16066;0.000;0.000;2023-04-06T07:23:36;20.70;36.30
28959;DHT22;16066;0.000;0.000;2023-04-06T07:26:02;20.70;36.20
28959;DHT22;16066;0.000;0.000;2023-04-06T07:28:27;20.70;36.30
28959;DHT22;16066;0.000;0.000;2023-04-06T07:30:53;20.70;36.20
28959;DHT22;16066;0.000;0.000;2023-04-06T07:33:20;20.70;36.30
28959;DHT22;16066;0.000;0.000;2023-04-06T07:35:45;20.70;36.20
28959;DHT22;16066;0.000;0.000;2023-04-06T07:38:11;20.80;36.10
28959;DHT22;16066;0.000;0.000;2023-04-06T07:40:36;20.80;36.00
28959;DHT22;16066;0.000;0.000;2023-04-06T07:43:02;20.80;35.90
28959;DHT22;16066;0.000;0.000;2023-04-06T07:45:28;20.80;35.90
28959;DHT22;16066;0.000;0.000;2023-04-06T07:47:54;20.80;35.90
28959;DHT22;16066;0.000;0.000;2023-04-06T07:50:19;20.80;35.90
28959;DHT22;16066;0.000;0.000;2023-04-06T07:52:45;20.80;35.90
28959;DHT22;16066;0.000;0.000;2023-04-06T07:55:11;20.80;35.90
28959;DHT22;16066;0.000;0.000;2023-04-06T07:57:37;20.80;35.90
28959;DHT22;16066;0.000;0.000;2023-04-06T08:00:02;20.80;35.90
28959;DHT22;16066;0.000;0.000;2023-04-06T08:02:29;20.70;35.90
28959;DHT22;16066;0.000;0.000;2023-04-06T08:04:55;20.70;36.00
28959;DHT22;16066;0.000;0.000;2023-04-06T08:07:20;20.70;36.00
28959;DHT22;16066;0.000;0.000;2023-04-06T08:09:46;20.70;36.00
28959;DHT22;16066;0.000;0.000;2023-04-06T08:12:12;20.70;35.90
28959;DHT22;16066;0.000;0.000;2023-04-06T08:14:37;20.70;35.80
28959;DHT22;16066;0.000;0.000;2023-04-06T08:17:03;20.70;35.80
28959;DHT22;16066;0.000;0.000;2023-04-06T08:19:28;20.70;35.80
28959;DHT22;16066;0.000;0.000;2023-04-06T08:21:54;20.70;35.80
28959;DHT22;16066;0.000;0.000;2023-04-06T08:24:20;20.70;35.70
28959;DHT22;16066;0.000;0.000;2023-04-06T08:26:45;20.70;35.70
28959;DHT22;16066;0.000;0.000;2023-04-06T08:29:11;20.70;35.70
28959;DHT22;16066;0.000;0.000;2023-04-06T08:31:36;20.70;35.70
28959;DHT22;16066;0.000;0.000;2023-04-06T08:34:03;20.60;35.60
28959;DHT22;16066;0.000;0.000;2023-04-06T08:36:29;20.70;35.60
28959;DHT22;16066;0.000;0.000;2023-04-06T08:38:55;20.70;35.50
28959;DHT22;16066;0.000;0.000;2023-04-06T08:41:20;20.70;35.50
28959;DHT22;16066;0.000;0.000;2023-04-06T08:43:59;20.70;35.60
28959;DHT22;16066;0.000;0.000;2023-04-06T08:46:25;20.70;35.50
28959;DHT22;16066;0.000;0.000;2023-04-06T08:48:57;20.70;35.50
28959;DHT22;16066;0.000;0.000;2023-04-06T08:51:23;20.70;35.50
28959;DHT22;16066;0.000;0.000;2023-04-06T08:53:53;20.70;35.50
28959;DHT22;16066;0.000;0.000;2023-04-06T08:56:20;20.70;35.50
28959;DHT22;16066;0.000;0.000;2023-04-06T08:58:46;20.70;35.60
28959;DHT22;16066;0.000;0.000;2023-04-06T09:01:13;20.70;35.60
28959;DHT22;16066;0.000;0.000;2023-04-06T09:03:40;20.70;35.70
28959;DHT22;16066;0.000;0.000;2023-04-06T09:06:08;20.70;35.70
28959;DHT22;16066;0.000;0.000;2023-04-06T09:08:34;20.70;35.60
28959;DHT22;16066;0.000;0.000;2023-04-06T09:11:03;20.70;35.70
28959;DHT22;16066;0.000;0.000;2023-04-06T09:13:29;20.70;35.80
28959;DHT22;16066;0.000;0.000;2023-04-06T09:16:00;20.60;35.60
28959;DHT22;16066;0.000;0.000;2023-04-06T09:18:33;20.70;35.80
28959;DHT22;16066;0.000;0.000;2023-04-06T09:21:04;20.60;35.40
28959;DHT22;16066;0.000;0.000;2023-04-06T09:23:30;20.60;35.50
28959;DHT22;16066;0.000;0.000;2023-04-06T09:26:12;20.60;35.60
28959;DHT22;16066;0.000;0.000;2023-04-06T09:28:52;20.60;35.50
28959;DHT22;16066;0.000;0.000;2023-04-06T09:31:22;20.70;35.50
28959;DHT22;16066;0.000;0.000;2023-04-06T09:33:49;20.60;35.60
28959;DHT22;16066;0.000;0.000;2023-04-06T09:36:15;20.70;35.90
28959;DHT22;16066;0.000;0.000;2023-04-06T09:38:59;20.70;36.60
28959;DHT22;16066;0.000;0.000;2023-04-06T09:41:27;20.70;36.80
28959;DHT22;16066;0.000;0.000;2023-04-06T09:44:06;20.70;36.40
28959;DHT22;16066;0.000;0.000;2023-04-06T09:46:33;20.70;36.50
28959;DHT22;16066;0.000;0.000;2023-04-06T09:49:02;20.80;36.80
28959;DHT22;16066;0.000;0.000;2023-04-06T09:51:40;20.80;36.80
28959;DHT22;16066;0.000;0.000;2023-04-06T09:54:06;20.80;37.00
28959;DHT22;16066;0.000;0.000;2023-04-06T10:01:51;20.70;36.40
28959;DHT22;16066;0.000;0.000;2023-04-06T10:06:55;20.80;36.40
28959;DHT22;16066;0.000;0.000;2023-04-06T10:09:24;20.80;36.40
28959;DHT22;16066;0.000;0.000;2023-04-06T10:11:51;20.80;36.60
28959;DHT22;16066;0.000;0.000;2023-04-06T10:14:17;20.80;36.60
28959;DHT22;16066;0.000;0.000;2023-04-06T10:16:43;20.80;36.60
28959;DHT22;16066;0.000;0.000;2023-04-06T10:19:18;20.80;36.60
28959;DHT22;16066;0.000;0.000;2023-04-06T10:21:48;20.80;36.30
28959;DHT22;16066;0.000;0.000;2023-04-06T10:24:16;20.80;36.30
28959;DHT22;16066;0.000;0.000;2023-04-06T10:26:42;20.80;36.40
28959;DHT22;16066;0.000;0.000;2023-04-06T10:29:08;20.80;36.40
28959;DHT22;16066;0.000;0.000;2023-04-06T10:31:39;20.80;36.40
28959;DHT22;16066;0.000;0.000;2023-04-06T10:34:07;20.80;36.60
28959;DHT22;16066;0.000;0.000;2023-04-06T10:36:34;20.80;36.50
28959;DHT22;16066;0.000;0.000;2023-04-06T10:39:02;20.80;36.60
28959;DHT22;16066;0.000;0.000;2023-04-06T10:41:43;20.80;36.60
28959;DHT22;16066;0.000;0.000;2023-04-06T10:44:30;20.80;36.30
28959;DHT22;16066;0.000;0.000;2023-04-06T10:46:57;20.80;36.30
28959;DHT22;16066;0.000;0.000;2023-04-06T10:49:24;20.80;36.20
28959;DHT22;16066;0.000;0.000;2023-04-06T10:51:54;20.80;36.10
28959;DHT22;16066;0.000;0.000;2023-04-06T10:54:21;20.70;35.90
28959;DHT22;16066;0.000;0.000;2023-04-06T10:56:48;20.70;36.00
28959;DHT22;16066;0.000;0.000;2023-04-06T10:59:21;20.70;36.00
28959;DHT22;16066;0.000;0.000;2023-04-06T11:01:48;20.70;36.10
28959;DHT22;16066;0.000;0.000;2023-04-06T11:04:16;20.70;36.20
28959;DHT22;16066;0.000;0.000;2023-04-06T11:06:46;20.70;36.10
28959;DHT22;16066;0.000;0.000;2023-04-06T11:09:23;20.70;36.20
28959;DHT22;16066;0.000;0.000;2023-04-06T11:11:49;20.70;36.00
28959;DHT22;16066;0.000;0.000;2023-04-06T11:14:14;20.70;36.00
28959;DHT22;16066;0.000;0.000;2023-04-06T11:16:40;20.70;36.20
28959;DHT22;16066;0.000;0.000;2023-04-06T11:19:05;20.70;36.10
28959;DHT22;16066;0.000;0.000;2023-04-06T11:21:43;20.70;36.00
28959;DHT22;16066;0.000;0.000;2023-04-06T11:24:20;20.70;36.10
28959;DHT22;16066;0.000;0.000;2023-04-06T11:26:57;20.70;35.80
28959;DHT22;16066;0.000;0.000;2023-04-06T11:29:28;20.70;36.00
28959;DHT22;16066;0.000;0.000;2023-04-06T11:32:00;20.70;35.90
28959;DHT22;16066;0.000;0.000;2023-04-06T11:34:27;20.80;35.90
28959;DHT22;16066;0.000;0.000;2023-04-06T11:36:58;20.80;35.90
28959;DHT22;16066;0.000;0.000;2023-04-06T11:39:25;20.80;36.20
28959;DHT22;16066;0.000;0.000;2023-04-06T11:41:52;20.70;34.90
28959;DHT22;16066;0.000;0.000;2023-04-06T11:47:06;20.70;35.10
28959;DHT22;16066;0.000;0.000;2023-04-06T11:49:33;20.70;35.00
28959;DHT22;16066;0.000;0.000;2023-04-06T11:52:01;20.70;35.10
28959;DHT22;16066;0.000;0.000;2023-04-06T11:54:33;20.80;35.30
28959;DHT22;16066;0.000;0.000;2023-04-06T11:56:59;20.80;35.50
28959;DHT22;16066;0.000;0.000;2023-04-06T11:59:26;20.80;35.50
28959;DHT22;16066;0.000;0.000;2023-04-06T12:01:52;20.80;35.40
28959;DHT22;16066;0.000;0.000;2023-04-06T12:04:18;20.90;34.90
28959;DHT22;16066;0.000;0.000;2023-04-06T12:06:44;20.80;34.80
28959;DHT22;16066;0.000;0.000;2023-04-06T12:09:10;20.90;35.00
28959;DHT22;16066;0.000;0.000;2023-04-06T12:11:35;20.90;35.00
28959;DHT22;16066;0.000;0.000;2023-04-06T12:14:01;20.80;35.20
28959;DHT22;16066;0.000;0.000;2023-04-06T12:16:33;20.90;35.30
28959;DHT22;16066;0.000;0.000;2023-04-06T12:18:58;20.90;35.30
28959;DHT22;16066;0.000;0.000;2023-04-06T12:21:24;20.90;35.40
28959;DHT22;16066;0.000;0.000;2023-04-06T12:23:49;20.90;35.70
28959;DHT22;16066;0.000;0.000;2023-04-06T12:26:15;20.80;35.50
28959;DHT22;16066;0.000;0.000;2023-04-06T12:28:41;20.90;35.60
28959;DHT22;16066;0.000;0.000;2023-04-06T12:31:06;20.80;35.20
28959;DHT22;16066;0.000;0.000;2023-04-06T12:33:32;20.80;35.40
28959;DHT22;16066;0.000;0.000;2023-04-06T12:35:57;20.80;35.60
28959;DHT22;16066;0.000;0.000;2023-04-06T12:38:23;20.80;35.70
28959;DHT22;16066;0.000;0.000;2023-04-06T12:40:48;20.80;35.80
28959;DHT22;16066;0.000;0.000;2023-04-06T12:43:13;20.80;35.90
28959;DHT22;16066;0.000;0.000;2023-04-06T12:45:40;20.80;35.60
28959;DHT22;16066;0.000;0.000;2023-04-06T12:48:06;20.80;35.80
28959;DHT22;16066;0.000;0.000;2023-04-06T12:50:32;20.80;35.90
28959;DHT22;16066;0.000;0.000;2023-04-06T12:52:57;20.80;35.90
28959;DHT22;16066;0.000;0.000;2023-04-06T12:55:23;20.80;36.00
28959;DHT22;16066;0.000;0.000;2023-04-06T12:57:48;20.80;35.90
28959;DHT22;16066;0.000;0.000;2023-04-06T13:00:14;20.80;36.10
28959;DHT22;16066;0.000;0.000;2023-04-06T13:02:40;20.80;36.10
28959;DHT22;16066;0.000;0.000;2023-04-06T13:05:12;20.80;36.20
28959;DHT22;16066;0.000;0.000;2023-04-06T13:07:37;20.80;36.20
28959;DHT22;16066;0.000;0.000;2023-04-06T13:10:03;20.80;36.30
28959;DHT22;16066;0.000;0.000;2023-04-06T13:12:29;20.80;36.20
28959;DHT22;16066;0.000;0.000;2023-04-06T13:14:54;20.80;36.10
28959;DHT22;16066;0.000;0.000;2023-04-06T13:17:20;20.80;36.20
28959;DHT22;16066;0.000;0.000;2023-04-06T13:19:46;20.70;36.00
28959;DHT22;16066;0.000;0.000;2023-04-06T13:22:11;20.70;35.60
28959;DHT22;16066;0.000;0.000;2023-04-06T13:24:37;20.70;35.40
28959;DHT22;16066;0.000;0.000;2023-04-06T13:27:02;20.70;35.40
28959;DHT22;16066;0.000;0.000;2023-04-06T13:29:28;20.70;35.30
28959;DHT22;16066;0.000;0.000;2023-04-06T13:31:53;20.70;35.40
28959;DHT22;16066;0.000;0.000;2023-04-06T13:34:19;20.70;35.70
28959;DHT22;16066;0.000;0.000;2023-04-06T13:36:45;20.70;35.80
28959;DHT22;16066;0.000;0.000;2023-04-06T13:39:10;20.70;35.90
28959;DHT22;16066;0.000;0.000;2023-04-06T13:41:36;20.70;35.90
28959;DHT22;16066;0.000;0.000;2023-04-06T13:44:01;20.70;35.80
28959;DHT22;16066;0.000;0.000;2023-04-06T13:46:27;20.70;35.80
28959;DHT22;16066;0.000;0.000;2023-04-06T13:48:53;20.70;36.00
28959;DHT22;16066;0.000;0.000;2023-04-06T13:51:18;20.80;36.40
28959;DHT22;16066;0.000;0.000;2023-04-06T13:53:44;20.80;36.00
28959;DHT22;16066;0.000;0.000;2023-04-06T13:56:10;20.80;35.50
28959;DHT22;16066;0.000;0.000;2023-04-06T13:58:35;20.70;35.30
28959;DHT22;16066;0.000;0.000;2023-04-06T14:01:10;20.80;35.40
28959;DHT22;16066;0.000;0.000;2023-04-06T14:03:36;20.70;35.50
28959;DHT22;16066;0.000;0.000;2023-04-06T14:06:10;20.80;35.60
28959;DHT22;16066;0.000;0.000;2023-04-06T14:08:35;20.70;35.70
28959;DHT22;16066;0.000;0.000;2023-04-06T14:11:01;20.80;35.90
28959;DHT22;16066;0.000;0.000;2023-04-06T14:13:26;20.70;35.80
28959;DHT22;16066;0.000;0.000;2023-04-06T14:15:53;20.70;35.80
28959;DHT22;16066;0.000;0.000;2023-04-06T14:18:19;20.80;36.00
28959;DHT22;16066;0.000;0.000;2023-04-06T14:20:45;20.80;35.90
28959;DHT22;16066;0.000;0.000;2023-04-06T14:23:10;20.80;35.90
28959;DHT22;16066;0.000;0.000;2023-04-06T14:25:36;20.80;36.00
28959;DHT22;16066;0.000;0.000;2023-04-06T14:28:01;20.80;36.00
28959;DHT22;16066;0.000;0.000;2023-04-06T14:30:27;20.80;36.20
28959;DHT22;16066;0.000;0.000;2023-04-06T14:32:56;20.80;36.20
28959;DHT22;16066;0.000;0.000;2023-04-06T14:35:22;20.70;36.10
28959;DHT22;16066;0.000;0.000;2023-04-06T14:37:48;20.70;36.00
28959;DHT22;16066;0.000;0.000;2023-04-06T14:40:13;20.70;36.10
28959;DHT22;16066;0.000;0.000;2023-04-06T14:42:39;20.70;36.10
28959;DHT22;16066;0.000;0.000;2023-04-06T14:45:05;20.70;36.20
28959;DHT22;16066;0.000;0.000;2023-04-06T14:47:31;20.70;36.10
28959;DHT22;16066;0.000;0.000;2023-04-06T14:49:57;20.60;36.10
28959;DHT22;16066;0.000;0.000;2023-04-06T14:52:22;20.60;36.10
28959;DHT22;16066;0.000;0.000;2023-04-06T14:54:48;20.60;36.10
28959;DHT22;16066;0.000;0.000;2023-04-06T14:57:13;20.60;36.10
28959;DHT22;16066;0.000;0.000;2023-04-06T14:59:39;20.60;36.10
28959;DHT22;16066;0.000;0.000;2023-04-06T15:02:05;20.60;36.10
28959;DHT22;16066;0.000;0.000;2023-04-06T15:04:30;20.50;35.60
28959;DHT22;16066;0.000;0.000;2023-04-06T15:06:58;20.50;35.00
28959;DHT22;16066;0.000;0.000;2023-04-06T15:09:24;20.50;34.90
28959;DHT22;16066;0.000;0.000;2023-04-06T15:11:50;20.50;35.10
28959;DHT22;16066;0.000;0.000;2023-04-06T15:14:15;20.50;35.50
28959;DHT22;16066;0.000;0.000;2023-04-06T15:16:41;20.50;35.60
28959;DHT22;16066;0.000;0.000;2023-04-06T15:19:06;20.50;35.70
28959;DHT22;16066;0.000;0.000;2023-04-06T15:21:32;20.50;35.80
28959;DHT22;16066;0.000;0.000;2023-04-06T15:23:58;20.50;35.90
28959;DHT22;16066;0.000;0.000;2023-04-06T15:26:23;20.50;36.00
28959;DHT22;16066;0.000;0.000;2023-04-06T15:28:49;20.50;36.00
28959;DHT22;16066;0.000;0.000;2023-04-06T15:31:18;20.50;36.00
28959;DHT22;16066;0.000;0.000;2023-04-06T15:33:45;20.50;36.00
28959;DHT22;16066;0.000;0.000;2023-04-06T15:36:37;20.60;36.10
28959;DHT22;16066;0.000;0.000;2023-04-06T15:39:03;20.50;36.00
28959;DHT22;16066;0.000;0.000;2023-04-06T15:41:29;20.60;36.10
28959;DHT22;16066;0.000;0.000;2023-04-06T15:43:54;20.60;35.70
28959;DHT22;16066;0.000;0.000;2023-04-06T15:46:21;20.50;35.90
28959;DHT22;16066;0.000;0.000;2023-04-06T15:48:46;20.50;36.10
28959;DHT22;16066;0.000;0.000;2023-04-06T15:51:12;20.50;36.00